createdAt,value
2018-08-14T00:00:41.302Z,88.80
2018-08-14T00:03:11.680Z,90.20
2018-08-14T00:05:39.982Z,90.40
2018-08-14T00:08:08.224Z,90.10
2018-08-14T00:10:36.330Z,90.10
2018-08-14T00:13:06.011Z,89.90
2018-08-14T00:15:34.097Z,88.50
2018-08-14T00:18:02.179Z,89.00
2018-08-14T00:20:30.258Z,88.90
2018-08-14T00:22:58.337Z,89.40
2018-08-14T00:25:26.419Z,88.80
2018-08-14T00:27:54.751Z,89.30
2018-08-14T00:30:26.239Z,89.30
2018-08-14T00:32:54.650Z,89.20
2018-08-14T00:35:22.774Z,89.20
2018-08-14T00:37:50.864Z,89.70
2018-08-14T00:40:20.162Z,89.60
2018-08-14T00:42:50.234Z,90.00
2018-08-14T00:45:19.572Z,90.10
2018-08-14T00:47:48.149Z,90.90
2018-08-14T00:50:16.638Z,90.70
2018-08-14T00:52:45.116Z,90.70
2018-08-14T00:55:14.522Z,90.50
2018-08-14T00:57:43.423Z,90.50
2018-08-14T01:00:24.382Z,90.40
2018-08-14T01:02:53.189Z,90.70
2018-08-14T01:05:21.450Z,90.40
2018-08-14T01:07:49.730Z,90.30
2018-08-14T01:10:17.802Z,90.40
2018-08-14T01:12:48.033Z,90.50
2018-08-14T01:15:17.723Z,90.50
2018-08-14T01:17:48.115Z,90.60
2018-08-14T01:20:16.231Z,90.60
2018-08-14T01:22:45.737Z,90.40
2018-08-14T01:25:14.212Z,90.50
2018-08-14T01:27:42.385Z,90.50
2018-08-14T01:30:15.182Z,90.60
2018-08-14T01:32:43.262Z,90.20
2018-08-14T01:35:11.397Z,90.60
2018-08-14T01:37:39.816Z,90.70
2018-08-14T01:40:07.962Z,90.90
2018-08-14T01:42:36.044Z,90.80
2018-08-14T01:45:05.027Z,90.80
2018-08-14T01:47:33.242Z,90.90
2018-08-14T01:50:01.352Z,90.80
2018-08-14T01:52:29.448Z,90.80
2018-08-14T01:54:57.597Z,90.70
2018-08-14T01:57:25.667Z,90.90
2018-08-14T01:59:53.758Z,90.80
2018-08-14T02:02:21.847Z,90.90
2018-08-14T02:04:49.954Z,90.80
2018-08-14T02:07:18.079Z,91.00
2018-08-14T02:09:46.559Z,90.80
2018-08-14T02:12:14.746Z,91.10
2018-08-14T02:14:43.238Z,91.20
2018-08-14T02:17:11.322Z,91.10
2018-08-14T02:19:39.410Z,90.90
2018-08-14T02:22:08.179Z,91.20
2018-08-14T02:24:36.259Z,91.10
2018-08-14T02:27:04.407Z,91.30
2018-08-14T02:29:32.478Z,91.30
2018-08-14T02:32:00.566Z,91.30
2018-08-14T02:34:28.665Z,91.20
2018-08-14T02:36:56.748Z,91.40
2018-08-14T02:39:24.835Z,91.40
2018-08-14T02:41:52.940Z,91.30
2018-08-14T02:44:21.190Z,91.40
2018-08-14T02:46:49.287Z,91.40
2018-08-14T02:49:17.409Z,91.40
2018-08-14T02:51:45.487Z,91.70
2018-08-14T02:54:13.598Z,91.40
2018-08-14T02:56:41.682Z,91.90
2018-08-14T02:59:09.822Z,92.00
2018-08-14T03:01:37.939Z,91.90
2018-08-14T03:04:06.002Z,91.70
2018-08-14T03:06:34.071Z,92.00
2018-08-14T03:09:02.154Z,92.10
2018-08-14T03:11:30.206Z,92.10
2018-08-14T03:13:58.312Z,92.20
2018-08-14T03:16:26.359Z,91.70
2018-08-14T03:18:54.471Z,92.30
2018-08-14T03:21:22.488Z,92.10
2018-08-14T03:23:50.557Z,92.00
2018-08-14T03:26:18.758Z,91.60
2018-08-14T03:28:46.862Z,91.90
2018-08-14T03:31:14.925Z,91.90
2018-08-14T03:33:43.030Z,92.00
2018-08-14T03:36:11.138Z,92.10
2018-08-14T03:38:39.246Z,91.80
2018-08-14T03:41:07.706Z,91.70
2018-08-14T03:43:35.794Z,91.90
2018-08-14T03:46:04.070Z,91.80
2018-08-14T03:48:32.482Z,92.00
2018-08-14T03:51:00.571Z,92.00
2018-08-14T03:53:28.657Z,92.10
2018-08-14T03:55:56.740Z,92.20
2018-08-14T03:58:24.806Z,91.70
2018-08-14T04:00:52.870Z,91.50
2018-08-14T04:03:20.956Z,91.30
2018-08-14T04:05:49.022Z,91.30
2018-08-14T04:08:17.102Z,91.30
2018-08-14T04:10:45.182Z,91.60
2018-08-14T04:13:13.246Z,91.20
2018-08-14T04:15:41.326Z,91.60
2018-08-14T04:18:10.090Z,91.30
2018-08-14T04:20:38.715Z,92.10
2018-08-14T04:23:06.806Z,91.50
2018-08-14T04:25:34.913Z,91.70
2018-08-14T04:28:03.000Z,91.70
2018-08-14T04:30:31.066Z,91.90
2018-08-14T04:32:59.138Z,91.60
2018-08-14T04:35:27.290Z,91.90
2018-08-14T04:37:55.386Z,92.00
2018-08-14T04:40:23.479Z,91.80
2018-08-14T04:42:51.562Z,92.00
2018-08-14T04:45:19.670Z,92.20
2018-08-14T04:47:47.756Z,92.20
2018-08-14T04:50:15.920Z,91.90
2018-08-14T04:52:44.378Z,91.90
2018-08-14T04:55:12.902Z,92.00
2018-08-14T04:57:41.494Z,91.80
2018-08-14T05:00:12.434Z,92.70
2018-08-14T05:02:40.504Z,92.00
2018-08-14T05:05:09.771Z,91.90
2018-08-14T05:07:38.291Z,92.10
2018-08-14T05:10:07.418Z,92.00
2018-08-14T05:12:35.501Z,91.30
2018-08-14T05:15:03.608Z,91.70
2018-08-14T05:17:31.830Z,91.50
2018-08-14T05:19:59.905Z,91.60
2018-08-14T05:22:28.206Z,91.50
2018-08-14T05:24:56.305Z,91.80
2018-08-14T05:27:24.378Z,91.70
2018-08-14T05:29:52.474Z,91.60
2018-08-14T05:32:20.563Z,91.60
2018-08-14T05:34:48.662Z,91.60
2018-08-14T05:37:16.747Z,91.40
2018-08-14T05:39:44.826Z,91.50
2018-08-14T05:42:12.926Z,91.40
2018-08-14T05:44:41.005Z,91.90
2018-08-14T05:47:09.082Z,91.80
2018-08-14T05:49:37.192Z,91.60
2018-08-14T05:52:05.315Z,91.40
2018-08-14T05:54:33.403Z,91.30
2018-08-14T05:57:01.477Z,91.50
2018-08-14T05:59:29.582Z,91.50
2018-08-14T06:01:57.670Z,91.30
2018-08-14T06:04:25.766Z,91.70
2018-08-14T06:06:53.852Z,91.60
2018-08-14T06:09:21.980Z,91.60
2018-08-14T06:11:50.071Z,91.30
2018-08-14T06:14:18.146Z,91.60
2018-08-14T06:16:46.284Z,91.60
2018-08-14T06:19:14.362Z,91.60
2018-08-14T06:21:42.447Z,91.50
2018-08-14T06:24:10.518Z,91.50
2018-08-14T06:26:38.614Z,91.60
2018-08-14T06:29:06.697Z,91.60
2018-08-14T06:31:34.806Z,92.00
2018-08-14T06:34:02.876Z,91.60
2018-08-14T06:36:31.155Z,92.20
2018-08-14T06:38:59.223Z,92.20
2018-08-14T06:41:27.294Z,91.90
2018-08-14T06:43:55.482Z,92.40
2018-08-14T06:46:23.617Z,91.90
2018-08-14T06:48:51.688Z,91.60
2018-08-14T06:51:19.743Z,91.40
2018-08-14T06:53:47.831Z,91.30
2018-08-14T06:56:15.912Z,91.40
2018-08-14T06:58:43.982Z,91.50
2018-08-14T07:01:12.064Z,91.40
2018-08-14T07:03:40.146Z,91.10
2018-08-14T07:06:08.314Z,91.10
2018-08-14T07:08:36.457Z,91.00
2018-08-14T07:11:04.587Z,90.80
2018-08-14T07:13:33.316Z,90.80
2018-08-14T07:16:04.041Z,90.30
2018-08-14T07:18:32.354Z,89.80
2018-08-14T07:21:00.442Z,89.10
2018-08-14T07:23:28.532Z,88.60
2018-08-14T07:25:56.995Z,88.50
2018-08-14T07:28:25.201Z,88.00
2018-08-14T07:30:53.239Z,88.60
2018-08-14T07:33:21.334Z,89.20
2018-08-14T07:35:49.460Z,88.70
2018-08-14T07:38:17.571Z,88.00
2018-08-14T07:40:45.704Z,87.70
2018-08-14T07:43:13.794Z,87.90
2018-08-14T07:45:41.911Z,88.70
2018-08-14T07:48:10.053Z,88.10
2018-08-14T07:50:38.203Z,87.80
2018-08-14T07:53:06.501Z,86.80
2018-08-14T07:55:34.551Z,86.30
2018-08-14T07:58:02.691Z,86.20
2018-08-14T08:00:30.775Z,86.40
2018-08-14T08:02:58.865Z,86.30
2018-08-14T08:05:26.976Z,86.70
2018-08-14T08:07:55.079Z,85.70
2018-08-14T08:10:23.228Z,85.50
2018-08-14T08:12:51.305Z,84.50
2018-08-14T08:15:20.193Z,83.40
2018-08-14T08:17:48.663Z,82.70
2018-08-14T08:20:24.282Z,80.80
2018-08-14T08:22:52.390Z,82.00
2018-08-14T08:25:20.466Z,81.70
2018-08-14T08:27:48.575Z,80.70
2018-08-14T08:30:16.647Z,80.80
2018-08-14T08:32:44.962Z,80.80
2018-08-14T08:35:13.459Z,81.40
2018-08-14T08:37:41.540Z,81.70
2018-08-14T08:40:09.652Z,81.60
2018-08-14T08:42:37.744Z,81.40
2018-08-14T08:45:06.232Z,79.90
2018-08-14T08:47:34.303Z,78.00
2018-08-14T08:50:02.387Z,78.70
2018-08-14T08:54:00.115Z,76.30
2018-08-14T08:56:28.290Z,76.70
2018-08-14T08:58:56.476Z,75.90
2018-08-14T09:01:24.618Z,76.50
2018-08-14T09:03:52.750Z,77.00
2018-08-14T09:06:20.867Z,76.10
2018-08-14T09:08:49.164Z,75.60
2018-08-14T09:11:17.239Z,74.50
2018-08-14T09:13:45.362Z,72.80
2018-08-14T09:16:13.455Z,73.90
2018-08-14T09:18:41.526Z,73.40
2018-08-14T09:21:09.618Z,74.40
2018-08-14T09:23:37.826Z,75.20
2018-08-14T09:26:05.917Z,73.80
2018-08-14T09:28:34.030Z,73.40
2018-08-14T09:31:02.095Z,73.20
2018-08-14T09:33:30.162Z,72.20
2018-08-14T09:35:58.254Z,71.60
2018-08-14T09:38:26.331Z,70.80
2018-08-14T09:40:54.415Z,71.20
2018-08-14T09:43:22.523Z,70.10
2018-08-14T09:45:51.116Z,70.20
2018-08-14T09:48:19.370Z,69.50
2018-08-14T09:50:47.445Z,70.30
2018-08-14T09:53:15.527Z,69.60
2018-08-14T09:55:43.640Z,70.60
2018-08-14T09:58:13.034Z,68.30
2018-08-14T10:00:46.597Z,67.70
2018-08-14T10:03:20.817Z,66.80
2018-08-14T10:05:51.466Z,65.70
2018-08-14T10:08:20.861Z,65.10
2018-08-14T10:10:49.460Z,65.70
2018-08-14T10:13:19.355Z,65.70
2018-08-14T10:15:48.528Z,66.10
2018-08-14T10:18:22.167Z,66.80
2018-08-14T10:20:50.373Z,66.70
2018-08-14T10:23:18.428Z,67.00
2018-08-14T10:25:46.594Z,66.60
2018-08-14T10:28:19.044Z,67.60
2018-08-14T10:30:47.208Z,67.30
2018-08-14T10:33:15.263Z,66.50
2018-08-14T10:35:43.351Z,66.20
2018-08-14T10:38:11.445Z,63.80
2018-08-14T10:40:39.511Z,62.70
2018-08-14T10:43:07.813Z,62.40
2018-08-14T10:45:35.890Z,63.40
2018-08-14T10:48:04.081Z,64.30
2018-08-14T10:50:32.135Z,64.50
2018-08-14T10:53:00.251Z,64.20
2018-08-14T10:55:28.334Z,64.00
2018-08-14T10:57:56.439Z,62.10
2018-08-14T11:00:25.868Z,62.10
2018-08-14T11:02:54.007Z,62.60
2018-08-14T11:05:22.615Z,62.80
2018-08-14T11:07:51.298Z,62.80
2018-08-14T11:10:22.723Z,62.70
2018-08-14T11:12:51.049Z,62.40
2018-08-14T11:15:19.155Z,62.40
2018-08-14T11:17:47.236Z,62.80
2018-08-14T11:20:26.085Z,62.30
2018-08-14T11:22:54.181Z,62.10
2018-08-14T11:25:22.259Z,62.20
2018-08-14T11:27:50.354Z,61.10
2018-08-14T11:30:25.946Z,60.20
2018-08-14T11:32:54.435Z,60.60
2018-08-14T11:35:23.486Z,60.40
2018-08-14T11:37:51.756Z,60.50
2018-08-14T11:40:19.879Z,61.30
2018-08-14T11:42:47.948Z,60.80
2018-08-14T11:45:24.110Z,60.00
2018-08-14T11:47:52.182Z,60.50
2018-08-14T11:50:20.858Z,57.70
2018-08-14T11:52:50.260Z,59.10
2018-08-14T11:55:19.545Z,59.00
2018-08-14T11:57:48.470Z,58.80
2018-08-14T12:00:20.230Z,58.20
2018-08-14T12:02:48.503Z,58.50
2018-08-14T12:05:16.894Z,58.30
2018-08-14T12:07:44.986Z,57.70
2018-08-14T12:10:14.339Z,57.30
2018-08-14T12:12:42.729Z,57.20
2018-08-14T12:15:12.138Z,57.70
2018-08-14T12:17:40.640Z,58.10
2018-08-14T12:20:10.410Z,57.70
2018-08-14T12:22:38.603Z,58.10
2018-08-14T12:25:07.210Z,57.70
2018-08-14T12:27:35.340Z,57.10
2018-08-14T12:30:03.709Z,56.70
2018-08-14T12:32:31.814Z,55.30
2018-08-14T12:34:59.896Z,55.20
2018-08-14T12:37:27.955Z,54.90
2018-08-14T12:39:56.026Z,54.20
2018-08-14T12:42:24.121Z,54.50
2018-08-14T12:44:54.922Z,54.50
2018-08-14T12:47:24.326Z,55.50
2018-08-14T12:49:52.467Z,54.40
2018-08-14T12:52:20.515Z,54.70
2018-08-14T12:54:48.771Z,54.80
2018-08-14T12:57:17.132Z,54.80
2018-08-14T12:59:45.214Z,55.00
2018-08-14T13:02:13.270Z,54.40
2018-08-14T13:04:41.539Z,54.70
2018-08-14T13:07:09.689Z,53.80
2018-08-14T13:09:37.790Z,54.20
2018-08-14T13:12:05.855Z,54.30
2018-08-14T13:14:34.039Z,54.90
2018-08-14T13:17:02.135Z,54.70
2018-08-14T13:19:30.215Z,54.60
2018-08-14T13:21:58.459Z,54.80
2018-08-14T13:24:26.658Z,54.60
2018-08-14T13:26:54.710Z,54.60
2018-08-14T13:29:22.794Z,55.00
2018-08-14T13:31:50.854Z,54.90
2018-08-14T13:34:18.944Z,55.00
2018-08-14T13:36:49.111Z,55.10
2018-08-14T13:39:17.198Z,55.40
2018-08-14T13:41:45.287Z,55.40
2018-08-14T13:44:13.395Z,55.00
2018-08-14T13:46:41.486Z,55.50
2018-08-14T13:49:09.679Z,55.20
2018-08-14T13:51:37.766Z,55.20
2018-08-14T13:54:06.133Z,55.20
2018-08-14T13:56:34.187Z,55.50
2018-08-14T13:59:02.291Z,55.50
2018-08-14T14:01:30.353Z,55.60
2018-08-14T14:03:58.647Z,55.40
2018-08-14T14:06:26.751Z,55.90
2018-08-14T14:08:54.810Z,55.50
2018-08-14T14:11:22.879Z,56.30
2018-08-14T14:13:51.147Z,56.30
2018-08-14T14:16:19.211Z,55.70
2018-08-14T14:18:47.294Z,56.10
2018-08-14T14:21:15.375Z,56.50
2018-08-14T14:23:43.448Z,56.70
2018-08-14T14:26:11.587Z,57.40
2018-08-14T14:28:39.666Z,56.40
2018-08-14T14:31:07.742Z,56.50
2018-08-14T14:33:35.810Z,56.50
2018-08-14T14:36:04.083Z,56.00
2018-08-14T14:38:32.238Z,55.70
2018-08-14T14:41:00.277Z,55.50
2018-08-14T14:43:28.395Z,55.60
2018-08-14T14:45:56.448Z,55.60
2018-08-14T14:48:24.540Z,56.00
2018-08-14T14:50:52.622Z,55.90
2018-08-14T14:53:20.703Z,55.90
2018-08-14T14:55:48.774Z,55.80
2018-08-14T14:58:16.847Z,55.90
2018-08-14T15:00:44.900Z,55.70
2018-08-14T15:03:12.963Z,55.70
2018-08-14T15:05:41.035Z,55.80
2018-08-14T15:08:09.120Z,56.10
2018-08-14T15:10:37.215Z,56.10
2018-08-14T15:13:05.467Z,56.00
2018-08-14T15:15:33.598Z,56.10
2018-08-14T15:18:01.704Z,56.40
2018-08-14T15:20:29.813Z,56.30
2018-08-14T15:22:58.682Z,56.40
2018-08-14T15:25:27.364Z,56.40
2018-08-14T15:29:05.702Z,56.70
2018-08-14T15:31:35.106Z,56.80
2018-08-14T15:34:03.814Z,56.20
2018-08-14T15:36:32.867Z,56.40
2018-08-14T15:39:02.167Z,56.30
2018-08-14T15:41:30.668Z,56.30
2018-08-14T15:43:58.731Z,56.70
2018-08-14T15:46:26.810Z,56.70
2018-08-14T15:48:54.978Z,56.90
2018-08-14T15:51:23.066Z,56.70
2018-08-14T15:53:51.643Z,57.20
2018-08-14T15:56:19.811Z,57.20
2018-08-14T15:58:47.987Z,57.20
2018-08-14T16:01:16.098Z,57.40
2018-08-14T16:03:44.193Z,57.20
2018-08-14T16:06:12.274Z,58.20
2018-08-14T16:08:40.375Z,57.60
2018-08-14T16:11:08.479Z,57.90
2018-08-14T16:13:36.560Z,58.20
2018-08-14T16:16:05.009Z,58.40
2018-08-14T16:18:33.132Z,58.50
2018-08-14T16:21:01.223Z,58.70
2018-08-14T16:23:29.307Z,59.00
2018-08-14T16:25:57.399Z,59.20
2018-08-14T16:28:25.485Z,59.10
2018-08-14T16:30:53.591Z,59.10
2018-08-14T16:33:21.730Z,59.10
2018-08-14T16:35:49.811Z,59.10
2018-08-14T16:38:17.907Z,59.10
2018-08-14T16:40:46.166Z,59.30
2018-08-14T16:43:14.191Z,59.40
2018-08-14T16:45:42.487Z,59.70
2018-08-14T16:48:10.566Z,59.90
2018-08-14T16:50:38.681Z,60.00
2018-08-14T16:53:06.758Z,60.30
2018-08-14T16:55:34.850Z,60.40
2018-08-14T16:58:02.914Z,60.70
2018-08-14T17:00:38.284Z,61.00
2018-08-14T17:03:07.694Z,61.70
2018-08-14T17:05:36.153Z,61.70
2018-08-14T17:08:05.051Z,61.90
2018-08-14T17:10:33.091Z,62.00
2018-08-14T17:13:01.233Z,62.90
2018-08-14T17:15:29.542Z,62.90
2018-08-14T17:17:57.607Z,64.70
2018-08-14T17:20:24.763Z,64.20
2018-08-14T17:22:52.955Z,64.60
2018-08-14T17:25:21.115Z,65.50
2018-08-14T17:27:50.659Z,66.00
2018-08-14T17:30:25.987Z,66.50
2018-08-14T17:32:54.985Z,66.80
2018-08-14T17:35:23.059Z,67.30
2018-08-14T17:37:51.903Z,69.40
2018-08-14T17:40:21.368Z,68.90
2018-08-14T17:42:49.628Z,68.80
2018-08-14T17:45:23.841Z,69.90
2018-08-14T17:47:53.040Z,68.90
2018-08-14T17:50:21.528Z,69.70
2018-08-14T17:52:49.803Z,69.20
2018-08-14T17:55:18.300Z,69.50
2018-08-14T17:57:46.389Z,70.00
2018-08-14T18:00:17.092Z,70.20
2018-08-14T18:02:45.720Z,70.50
2018-08-14T18:05:13.839Z,70.00
2018-08-14T18:07:43.039Z,70.70
2018-08-14T18:10:15.448Z,70.80
2018-08-14T18:12:43.552Z,71.00
2018-08-14T18:15:12.795Z,71.10
2018-08-14T18:17:40.880Z,70.60
2018-08-14T18:20:11.752Z,71.20
2018-08-14T18:22:40.182Z,72.00
2018-08-14T18:25:09.181Z,71.50
2018-08-14T18:27:37.314Z,71.30
2018-08-14T18:30:06.793Z,71.10
2018-08-14T18:32:34.905Z,71.30
2018-08-14T18:35:02.970Z,71.30
2018-08-14T18:37:31.059Z,72.10
2018-08-14T18:39:59.127Z,71.90
2018-08-14T18:42:27.270Z,72.20
2018-08-14T18:44:55.403Z,72.80
2018-08-14T18:47:23.451Z,72.70
2018-08-14T18:49:51.562Z,72.40
2018-08-14T18:52:19.655Z,72.40
2018-08-14T18:54:47.782Z,72.80
2018-08-14T18:57:15.886Z,72.70
2018-08-14T18:59:43.989Z,72.80
2018-08-14T19:02:12.102Z,72.60
2018-08-14T19:04:40.232Z,72.90
2018-08-14T19:07:08.479Z,73.70
2018-08-14T19:09:36.582Z,73.80
2018-08-14T19:12:04.694Z,73.20
2018-08-14T19:14:32.822Z,73.20
2018-08-14T19:17:00.906Z,72.50
2018-08-14T19:19:29.032Z,72.60
2018-08-14T19:21:57.374Z,72.90
2018-08-14T19:24:25.499Z,72.60
2018-08-14T19:26:53.578Z,72.90
2018-08-14T19:29:21.664Z,72.90
2018-08-14T19:31:49.795Z,72.30
2018-08-14T19:34:17.871Z,73.00
2018-08-14T19:36:47.090Z,73.00
2018-08-14T19:39:15.126Z,73.00
2018-08-14T19:41:43.586Z,72.70
2018-08-14T19:44:12.706Z,74.30
2018-08-14T19:46:41.371Z,74.20
2018-08-14T19:49:09.462Z,74.00
2018-08-14T19:51:37.576Z,74.00
2018-08-14T19:54:06.098Z,74.10
2018-08-14T19:56:34.222Z,74.00
2018-08-14T19:59:02.763Z,73.80
2018-08-14T20:01:31.108Z,74.10
2018-08-14T20:03:59.209Z,74.10
2018-08-14T20:06:27.293Z,74.10
2018-08-14T20:08:55.383Z,73.70
2018-08-14T20:11:23.502Z,73.30
2018-08-14T20:13:51.705Z,73.20
2018-08-14T20:16:19.746Z,73.30
2018-08-14T20:18:47.830Z,73.20
2018-08-14T20:21:16.092Z,73.00
2018-08-14T20:23:44.180Z,73.00
2018-08-14T20:26:12.337Z,73.40
2018-08-14T20:28:40.414Z,73.60
2018-08-14T20:31:08.487Z,73.50
2018-08-14T20:33:36.594Z,73.60
2018-08-14T20:36:04.713Z,73.60
2018-08-14T20:38:32.867Z,73.70
2018-08-14T20:41:00.891Z,74.00
2018-08-14T20:43:29.044Z,74.00
2018-08-14T20:45:57.297Z,74.30
2018-08-14T20:48:25.363Z,73.90
2018-08-14T20:50:53.471Z,73.90
2018-08-14T20:53:21.562Z,74.00
2018-08-14T20:55:49.670Z,73.90
2018-08-14T20:58:17.810Z,73.90
2018-08-14T21:00:45.950Z,74.00
2018-08-14T21:03:14.124Z,73.80
2018-08-14T21:05:42.207Z,73.90
2018-08-14T21:08:10.302Z,73.70
2018-08-14T21:10:38.454Z,73.70
2018-08-14T21:13:06.554Z,73.80
2018-08-14T21:15:40.350Z,74.00
2018-08-14T21:18:08.491Z,74.00
2018-08-14T21:20:36.577Z,74.10
2018-08-14T21:23:04.634Z,74.10
2018-08-14T21:25:32.699Z,74.40
2018-08-14T21:28:00.788Z,74.20
2018-08-14T21:30:28.876Z,74.20
2018-08-14T21:32:56.971Z,74.30
2018-08-14T21:35:25.063Z,74.30
2018-08-14T21:37:53.346Z,74.60
2018-08-14T21:40:21.447Z,74.70
2018-08-14T21:42:50.464Z,74.40
2018-08-14T21:45:19.781Z,76.00
2018-08-14T21:47:47.881Z,76.00
2018-08-14T21:50:15.973Z,75.80
2018-08-14T21:52:44.101Z,75.20
2018-08-14T21:55:13.240Z,75.10
2018-08-14T21:57:42.163Z,74.90
2018-08-14T22:00:17.998Z,74.60
2018-08-14T22:02:46.094Z,74.60
2018-08-14T22:05:14.779Z,74.80
2018-08-14T22:07:43.348Z,75.00
2018-08-14T22:10:11.407Z,74.60
2018-08-14T22:12:39.478Z,75.00
2018-08-14T22:15:07.767Z,75.00
2018-08-14T22:17:35.843Z,75.50
2018-08-14T22:20:05.099Z,75.60
2018-08-14T22:22:33.232Z,75.30
2018-08-14T22:25:01.265Z,76.50
2018-08-14T22:27:29.351Z,76.30
2018-08-14T22:29:57.439Z,76.30
2018-08-14T22:32:25.538Z,75.90
2018-08-14T22:34:53.646Z,75.60
2018-08-14T22:37:21.738Z,75.60
2018-08-14T22:39:49.814Z,75.80
2018-08-14T22:42:17.887Z,75.30
2018-08-14T22:44:46.043Z,75.30
2018-08-14T22:47:14.108Z,74.90
2018-08-14T22:49:43.235Z,75.00
2018-08-14T22:52:11.865Z,74.90
2018-08-14T22:54:40.060Z,74.70
2018-08-14T22:57:08.120Z,75.10
2018-08-14T22:59:36.200Z,75.00
2018-08-14T23:02:04.297Z,74.70
2018-08-14T23:04:32.380Z,75.10
2018-08-14T23:07:00.582Z,74.90
2018-08-14T23:09:28.724Z,74.90
2018-08-14T23:11:56.800Z,75.40
2018-08-14T23:14:24.871Z,75.60
2018-08-14T23:16:53.011Z,75.50
2018-08-14T23:19:21.182Z,75.60
2018-08-14T23:21:49.258Z,75.20
2018-08-14T23:24:17.355Z,75.50
2018-08-14T23:26:45.451Z,75.70
2018-08-14T23:29:13.538Z,75.50
2018-08-14T23:31:42.364Z,75.50
2018-08-14T23:34:10.438Z,75.90
2018-08-14T23:36:38.510Z,75.70
2018-08-14T23:39:09.179Z,75.50
2018-08-14T23:41:37.252Z,75.60
2018-08-14T23:44:05.354Z,75.40
2018-08-14T23:46:33.474Z,75.40
2018-08-14T23:49:01.595Z,75.70
2018-08-14T23:51:30.350Z,75.90
2018-08-14T23:53:58.429Z,75.80
2018-08-14T23:56:26.494Z,77.40
2018-08-14T23:58:54.558Z,77.20
